Time;durP1;ratioP1;P1;durP2;ratioP2;P2;SDS_P1;SDS_P2;PMS_P1;PMS_P2;Temp;Humidity;BMP_temperature;BMP_pressure;BME280_temperature;BME280_humidity;BME280_pressure;Samples;Min_cycle;Max_cycle;Signal;HPM_P1;HPM_P2
2022/11/06 08:07:54;;;;;;;;;;;10.10;99.90;;;;;;5075920;23;20006;-74
2022/11/06 08:10:20;;;;;;;;;;;10.00;99.90;;;;;;4879440;29;19934;-74
2022/11/06 08:12:55;;;;;;;;;;;10.10;99.90;;;;;;4867413;29;19926;-73
2022/11/06 08:16:00;;;;;;;;;;;10.10;99.90;;;;;;4848899;29;20055;-74
2022/11/06 08:18:46;;;;;;;;;;;10.00;99.90;;;;;;4858824;29;19920;-72
2022/11/06 08:21:23;;;;;;;;;;;10.00;99.90;;;;;;4863411;29;19927;-73
2022/11/06 08:24:00;;;;;;;;;;;10.00;99.90;;;;;;4873959;29;20409;-73
2022/11/06 08:26:59;;;;;;;;;;;10.00;99.90;;;;;;4848623;29;19923;-72
2022/11/06 08:30:27;;;;;;;;;;;;;;;;;;;;;
2022/11/06 08:36:17;;;;;;;;;;;10.00;99.90;;;;;;4805018;29;19925;-73
2022/11/06 08:39:01;;;;;;;;;;;10.00;99.90;;;;;;4769400;30;20053;-73
2022/11/06 08:42:05;;;;;;;;;;;10.10;99.90;;;;;;4784289;29;19944;-73
2022/11/06 08:45:34;;;;;;;;;;;10.00;99.90;;;;;;4804820;29;19921;-73
2022/11/06 08:48:26;;;;;;;;;;;10.10;99.90;;;;;;4790632;29;19921;-73
2022/11/06 08:51:26;;;;;;;;;;;10.10;99.90;;;;;;4805275;30;19921;-67
2022/11/06 08:54:05;;;;;;;;;;;;;;;;;;;;;
2022/11/06 08:56:43;;;;;;;;;;;10.20;99.90;;;;;;4826284;29;19981;-72
2022/11/06 08:59:24;;;;;;;;;;;;;;;;;;;;;
2022/11/06 09:02:15;;;;;;;;;;;10.30;99.90;;;;;;4841005;29;19936;-72
2022/11/06 09:05:41;;;;;;;;;;;10.40;99.90;;;;;;4826250;29;19943;-72
2022/11/06 09:08:16;;;;;;;;;;;10.30;99.90;;;;;;4846530;29;19926;-71
2022/11/06 09:10:50;;;;;;;;;;;10.30;99.90;;;;;;4877416;29;20408;-72
2022/11/06 09:13:28;;;;;;;;;;;10.30;99.90;;;;;;4878019;29;20353;-71
2022/11/06 09:15:59;;;;;;;;;;;10.30;99.90;;;;;;4862324;29;19962;-73
2022/11/06 09:18:35;;;;;;;;;;;10.20;99.90;;;;;;4876770;29;19920;-70
2022/11/06 09:24:34;;;;;;;;;;;10.20;99.90;;;;;;4875164;29;19928;-72
2022/11/06 09:27:49;;;;;;;;;;;10.30;99.90;;;;;;4876498;29;19924;-71
2022/11/06 09:30:16;;;;;;;;;;;10.20;99.90;;;;;;4860797;29;19923;-71
2022/11/06 11:49:08;;;;;;;;;;;10.90;99.90;;;;;;5320747;23;19915;31
2022/11/06 11:54:30;;;;;;;;;;;11.00;99.90;;;;;;5147128;23;20018;-72
2022/11/06 12:00:24;;;;;;;;;;;11.00;99.90;;;;;;4881893;29;19924;-73
2022/11/06 12:03:28;;;;;;;;;;;;;;;;;;;;;
2022/11/06 12:06:13;;;;;;;;;;;11.10;99.90;;;;;;4841424;29;20352;-72
2022/11/06 12:08:48;;;;;;;;;;;11.20;99.90;;;;;;4826937;29;20023;-72
2022/11/06 12:11:15;;;;;;;;;;;11.20;99.90;;;;;;4826773;29;19920;-75
2022/11/06 12:16:43;;;;;;;;;;;11.40;99.90;;;;;;4861904;29;20035;-72
2022/11/06 12:19:09;;;;;;;;;;;11.30;99.90;;;;;;4862913;29;19924;-70
2022/11/06 12:22:00;;;;;;;;;;;11.20;99.90;;;;;;4848270;29;19930;-78
2022/11/06 12:37:59;;;;;;;;;;;11.40;99.90;;;;;;4854627;29;19919;-79
2022/11/06 12:40:47;;;;;;;;;;;11.30;99.90;;;;;;4833899;29;20014;-79
2022/11/06 12:44:08;;;;;;;;;;;11.10;99.90;;;;;;4843873;29;19920;-79
2022/11/06 12:46:46;;;;;;;;;;;11.30;99.90;;;;;;4877434;29;19919;-79
2022/11/06 12:49:30;;;;;;;;;;;11.20;99.90;;;;;;4885883;29;19923;-82
2022/11/06 13:25:08;;;;;;;;;;;11.00;99.90;;;;;;5951591;23;19922;-74
2022/11/06 13:27:56;;;;;;;;;;;11.00;99.90;;;;;;4880168;29;20337;-75
2022/11/06 13:30:32;;;;;;;;;;;10.90;99.90;;;;;;4869938;29;19930;-77
2022/11/06 13:33:07;;;;;;;;;;;11.10;99.90;;;;;;4879203;29;20313;-75
2022/11/06 13:36:00;;;;;;;;;;;10.90;99.90;;;;;;4861373;29;19984;-84
2022/11/06 13:38:58;;;;;;;;;;;;;;;;;;;;;
2022/11/06 13:55:18;;;;;;;;;;;10.60;99.90;;;;;;4868088;29;19984;-76
2022/11/06 14:14:51;;;;;;;;;;;10.70;99.90;;;;;;4803713;29;19964;-76
2022/11/06 14:43:30;;;;;;;;;;;10.80;99.90;;;;;;5149447;27;19908;-84
2022/11/06 14:54:53;;;;;;;;;;;10.60;99.90;;;;;;5376432;23;19921;-74
2022/11/06 14:57:33;;;;;;;;;;;10.60;99.90;;;;;;5067940;28;20322;-77
2022/11/06 14:59:59;;;;;;;;;;;10.60;99.90;;;;;;5045868;28;20015;-76
2022/11/06 15:02:26;;;;;;;;;;;10.50;99.90;;;;;;5040282;28;19960;-76
2022/11/06 15:05:01;;;;;;;;;;;10.60;99.90;;;;;;5033845;28;19933;-79
2022/11/06 15:07:39;;;;;;;;;;;10.60;99.90;;;;;;5033034;28;19979;-74
2022/11/06 15:10:24;;;;;;;;;;;10.50;99.90;;;;;;5016403;28;20012;-76
2022/11/06 15:13:09;;;;;;;;;;;10.40;99.90;;;;;;5027943;28;19925;-80
2022/11/06 15:15:35;;;;;;;;;;;10.50;99.90;;;;;;5015181;28;20344;-77
2022/11/06 15:18:02;;;;;;;;;;;10.40;99.90;;;;;;5028997;28;19940;-77
2022/11/06 15:20:32;;;;;;;;;;;10.40;99.90;;;;;;5016892;28;20305;-76
2022/11/06 15:23:06;;;;;;;;;;;10.40;99.90;;;;;;5031123;28;20016;-79
2022/11/06 15:25:35;;;;;;;;;;;10.30;99.90;;;;;;5031874;28;19917;-80
2022/11/06 15:34:41;;;;;;;;;;;10.10;99.90;;;;;;5011593;28;19921;-80
2022/11/06 15:37:21;;;;;;;;;;;10.20;99.90;;;;;;5023467;28;19916;-80
2022/11/06 15:40:10;;;;;;;;;;;;;;;;;;;;;
2022/11/06 15:49:28;;;;;;;;;;;10.00;99.90;;;;;;5036396;28;19959;-78
2022/11/06 15:52:01;;;;;;;;;;;10.00;99.90;;;;;;5018764;28;19925;-85
2022/11/06 17:07:36;;;;;;;;;;;9.20;99.90;;;;;;6083495;23;19917;-81
2022/11/06 17:17:38;;;;;;;;;;;9.00;99.90;;;;;;4975776;28;19918;-83
2022/11/06 17:32:54;;;;;;;;;;;8.90;99.90;;;;;;4994563;28;19920;-81
2022/11/06 18:27:04;;;;;;;;;;;8.10;99.90;;;;;;5814129;23;19921;-83
2022/11/06 18:56:37;;;;;;;;;;;8.10;99.90;;;;;;5432985;22;20373;-83
2022/11/06 18:59:10;;;;;;;;;;;8.00;99.90;;;;;;4961207;28;19933;-76
2022/11/06 19:01:44;;;;;;;;;;;8.00;99.90;;;;;;4956581;28;19922;-76
2022/11/06 19:08:00;;;;;;;;;;;8.10;99.90;;;;;;4982760;28;19982;-75
2022/11/06 19:10:34;;;;;;;;;;;7.80;99.90;;;;;;4956229;28;20317;-82
2022/11/06 19:24:47;;;;;;;;;;;8.20;99.90;;;;;;5465632;23;20399;-80
2022/11/06 19:30:51;;;;;;;;;;;8.40;99.90;;;;;;4958713;29;19978;-85
2022/11/06 19:40:30;;;;;;;;;;;8.50;99.90;;;;;;4918347;29;19918;-85
2022/11/06 19:46:26;;;;;;;;;;;8.30;99.90;;;;;;4900498;29;19919;-81
2022/11/06 19:49:36;;;;;;;;;;;;;;;;;;;;;
2022/11/06 19:56:18;;;;;;;;;;;8.10;99.90;;;;;;4878413;29;19955;-80
2022/11/06 19:58:59;;;;;;;;;;;8.40;99.90;;;;;;4866275;29;20022;-82
2022/11/06 20:01:47;;;;;;;;;;;;;;;;;;;;;
2022/11/06 20:04:33;;;;;;;;;;;8.50;99.90;;;;;;4882870;29;19926;-80
2022/11/06 20:07:17;;;;;;;;;;;8.50;99.90;;;;;;4865186;29;19927;-85
2022/11/06 20:09:43;;;;;;;;;;;8.60;99.90;;;;;;4883593;29;19920;-80
2022/11/06 20:15:59;;;;;;;;;;;8.60;99.90;;;;;;4914572;29;20251;-80
2022/11/06 20:19:08;;;;;;;;;;;8.50;99.90;;;;;;4828771;29;19920;-86
2022/11/06 20:25:36;;;;;;;;;;;8.70;99.90;;;;;;4838384;29;19971;-82
2022/11/06 20:43:46;;;;;;;;;;;8.90;99.90;;;;;;5313934;22;19916;-78
2022/11/06 20:47:13;;;;;;;;;;;9.00;99.90;;;;;;5034078;22;19928;-84
2022/11/06 20:53:28;;;;;;;;;;;;;;;;;;;;;
2022/11/06 21:05:49;;;;;;;;;;;9.10;99.90;;;;;;5159927;23;20272;-78
2022/11/06 21:11:47;;;;;;;;;;;9.10;99.90;;;;;;4995376;28;19920;-82
2022/11/06 21:18:06;;;;;;;;;;;;;;;;;;;;;
2022/11/06 21:21:05;;;;;;;;;;;9.40;99.90;;;;;;4995273;28;19917;-80
2022/11/06 21:37:08;;;;;;;;;;;9.40;99.90;;;;;;4978230;28;19933;-80
2022/11/06 21:39:43;;;;;;;;;;;9.40;99.90;;;;;;4953005;28;19945;-81
2022/11/06 21:42:09;;;;;;;;;;;9.50;99.90;;;;;;5181340;23;19917;-77
2022/11/06 22:40:59;;;;;;;;;;;10.00;99.90;;;;;;4956190;28;20448;-85
2022/11/06 23:10:06;;;;;;;;;;;10.00;99.90;;;;;;4976957;28;19922;-79
2022/11/06 23:12:32;;;;;;;;;;;10.00;99.90;;;;;;4945301;28;20365;-77
2022/11/06 23:14:58;;;;;;;;;;;10.10;99.90;;;;;;4961020;28;19926;-76
2022/11/06 23:17:26;;;;;;;;;;;10.10;99.90;;;;;;4961479;28;19922;-76
2022/11/06 23:19:55;;;;;;;;;;;10.10;99.90;;;;;;4944619;28;19943;-77
2022/11/06 23:22:36;;;;;;;;;;;10.20;99.90;;;;;;4944448;28;20009;-76
2022/11/06 23:25:03;;;;;;;;;;;10.20;99.90;;;;;;4932057;28;19969;-76
2022/11/06 23:27:28;;;;;;;;;;;10.20;99.90;;;;;;4960608;28;19942;-77
2022/11/06 23:29:59;;;;;;;;;;;10.20;99.90;;;;;;4945573;28;19922;-77
2022/11/06 23:32:28;;;;;;;;;;;10.20;99.90;;;;;;4945017;28;20017;-79
2022/11/06 23:34:54;;;;;;;;;;;10.30;99.90;;;;;;4961098;28;19928;-77
2022/11/06 23:37:20;;;;;;;;;;;10.60;99.90;;;;;;4960301;28;19922;-78
2022/11/06 23:39:45;;;;;;;;;;;10.30;99.90;;;;;;4944817;28;20005;-78
2022/11/06 23:42:18;;;;;;;;;;;10.20;99.90;;;;;;4961123;28;19930;-78
2022/11/06 23:47:28;;;;;;;;;;;10.20;99.90;;;;;;4963660;28;20297;-79
2022/11/06 23:49:53;;;;;;;;;;;10.20;99.90;;;;;;4944342;28;19918;-77
2022/11/06 23:52:19;;;;;;;;;;;10.20;99.90;;;;;;4960755;28;19918;-77
2022/11/06 23:54:45;;;;;;;;;;;10.20;99.90;;;;;;4961083;28;19929;-78
2022/11/06 23:57:13;;;;;;;;;;;10.40;99.90;;;;;;4944616;28;19925;-79
2022/11/06 23:59:39;;;;;;;;;;;10.20;99.90;;;;;;4961050;28;19918;-76
